x

Ne Burgeo Bank (44255) Wave Buoy

7:00pm - Mon 2nd Mar 2015 All times are AST. -4 hours from GMT.

  • Sig Wave height 7.2ft
  • Peak Period 7s
  • Wind
    11mph, 13mph gusts
  • Sea Temp 33°f
  • Air Temp 33°f
  • Sea Pressure 985.4mb
  • Ne Burgeo Bank
  • Ne Burgeo Bank

More Historic Weather Station data

Upgrade to MSW Pro to gain access to the past 30 days of data for over 8000 Wavebouys and Weather Stations around the globe.

Join Pro

Comparision Forecast

View Surf forecast
   
Mon 03/02 7:00pm 7ft 7s 11 13 mph 985.4mb 33f 33f
6:00pm 7ft 7s  -  2 mph 987.1mb 33f 33f
5:00pm 7.5ft 7s 9 13 mph 989.7mb 33f 33f
4:00pm 7ft 7s 16 20 mph 992.6mb 33f 33f
3:00pm 6ft 6s 25 31 mph 996.1mb 33f 33f
2:00pm 5.5ft 5s 25 29 mph 999.2mb 33f 33f
1:00pm 4.5ft 4s 22 27 mph 1003mb 33f 33f
12:00pm 4ft 5s 22 27 mph 1006.8mb 33f 31f
11:00am 4ft 5s 20 25 mph 1010.4mb 33f 30f
10:00am 4ft 5s 20 22 mph 1013.8mb 33f 29f
9:00am 3.5ft 4s 20 25 mph 1015.8mb 33f 29f
8:00am 3.5ft 5s 16 20 mph 1017.7mb 33f 29f
7:00am 3.5ft 5s 18 20 mph 1019.4mb 33f 30f
6:00am 3.5ft 5s 18 20 mph 1020.8mb 33f 29f
1:00am 2.5ft 9s 16 22 mph 1027.1mb 33f 27f
Sun 03/01 10:00pm 2.5ft 4s 13 16 mph 1030.3mb 33f 25f
7:00pm 3.5ft 5s 13 16 mph 1031.6mb 33f 25f
6:00pm 3.5ft 4s 13 18 mph 1031.9mb 33f 25f
5:00pm 4ft 5s 18 20 mph 1032.3mb 33f 25f
4:00pm 4.5ft 5s 20 22 mph 1032.5mb 33f 25f
3:00pm 4ft 5s 18 22 mph 1032.8mb 33f 25f
2:00pm 4.5ft 4s 20 25 mph 1032.6mb 33f 25f
11:00am 4.5ft 5s 20 25 mph 1033.5mb 33f 24f
10:00am 5ft 6s 20 25 mph 1033.7mb 33f 24f
9:00am 5ft 6s 22 27 mph 1033.7mb 33f 25f
6:00am 5ft 5s 20 25 mph 1033.1mb 33f 25f
1:00am 6.5ft 7s 22 27 mph 1033.2mb 33f 24f
Sat 02/28 10:00pm 8ft 6s 27 34 mph 1033.3mb 33f 23f
3:00pm 7.5ft 6s 25 31 mph 1031.5mb 33f 19f
10:00am 8ft 11s 25 29 mph 1029.9mb 33f 18f
Fri 02/27 11:00pm 10ft 12s 27 31 mph 1023.2mb 33f 16f
4:00pm 6.5ft 5s 29 36 mph 1016.7mb 33f 21f
11:00am 4.5ft 10s 18 22 mph 1014mb 33f 22f
10:00am 4.5ft 10s 16 20 mph 1013.6mb 33f 22f
7:00am 4ft 10s 11 16 mph 1012mb 33f 21f
4:00am 4.5ft 10s 9 13 mph 1010.7mb 33f 20f
3:00am 4.5ft 9s 9 11 mph 1010.3mb 33f 20f